Time;durP1;ratioP1;P1;durP2;ratioP2;P2;SDS_P1;SDS_P2;PMS_P1;PMS_P2;Temp;Humidity;BMP_temperature;BMP_pressure;BME280_temperature;BME280_humidity;BME280_pressure;Samples;Min_cycle;Max_cycle;Signal;HPM_P1;HPM_P2
2021/06/01 00:00:17;;;;;;;7.45;6.57;;;;;;;;;;5108673;28;20827;-82
2021/06/01 00:02:43;;;;;;;7.53;6.57;;;;;;;;;;5108783;28;20371;-82
2021/06/01 00:05:09;;;;;;;6.95;6.25;;;;;;;;;;5108802;28;20801;-80
2021/06/01 00:07:36;;;;;;;7.63;6.88;;;;;;;;;;5108826;28;20366;-84
2021/06/01 00:10:03;;;;;;;7.30;6.60;;;;;;;;;;5108581;28;20374;-83
2021/06/01 00:12:29;;;;;;;7.93;6.40;;;;;;;;;;5108860;28;20366;-80
2021/06/01 00:14:55;;;;;;;7.63;6.82;;;;;;;;;;5108883;28;20381;-83
2021/06/01 00:17:20;;;;;;;9.30;7.38;;;;;;;;;;5108684;28;20431;-82
2021/06/01 00:19:46;;;;;;;8.95;7.70;;;;;;;;;;5108267;28;20386;-80
2021/06/01 00:22:12;;;;;;;9.73;7.55;;;;;;;;;;5111664;28;20729;-83
2021/06/01 00:24:38;;;;;;;8.20;7.00;;;;;;;;;;5094232;28;20397;-82
2021/06/01 00:27:05;;;;;;;8.18;6.82;;;;;;;;;;5094008;28;20378;-81
2021/06/01 00:29:31;;;;;;;6.90;6.25;;;;;;;;;;5094012;28;20363;-81
2021/06/01 00:31:57;;;;;;;8.73;7.03;;;;;;;;;;5093801;28;20434;-82
2021/06/01 00:34:23;;;;;;;7.47;6.78;;;;;;;;;;5112265;28;20403;-82
2021/06/01 00:36:49;;;;;;;7.90;7.05;;;;;;;;;;5111956;28;20409;-83
2021/06/01 00:39:14;;;;;;;7.37;6.70;;;;;;;;;;5112386;28;20406;-83
2021/06/01 00:41:41;;;;;;;7.97;7.17;;;;;;;;;;5112402;28;20402;-84
2021/06/01 00:44:07;;;;;;;7.97;6.88;;;;;;;;;;5113323;28;20366;-81
2021/06/01 00:46:33;;;;;;;7.97;7.20;;;;;;;;;;5112998;28;20439;-83
2021/06/01 00:48:59;;;;;;;8.25;7.20;;;;;;;;;;5112710;28;20366;-82
2021/06/01 00:51:25;;;;;;;7.27;6.23;;;;;;;;;;5112371;28;20722;-81
2021/06/01 00:53:51;;;;;;;6.87;6.13;;;;;;;;;;5112238;28;20363;-82
2021/06/01 00:56:17;;;;;;;7.75;6.68;;;;;;;;;;5094033;28;20861;-84
2021/06/01 00:58:43;;;;;;;8.15;7.35;;;;;;;;;;5112048;28;20453;-83
2021/06/01 01:01:19;;;;;;;7.95;6.57;;;;;;;;;;5093608;28;20398;-81
2021/06/01 01:03:45;;;;;;;8.10;7.30;;;;;;;;;;5111612;28;20378;-84
2021/06/01 01:06:19;;;;;;;9.00;7.95;;;;;;;;;;5111664;28;20941;-83
2021/06/01 01:11:19;;;;;;;9.07;7.70;;;;;;;;;;5111813;28;20377;-82
2021/06/01 01:13:59;;;;;;;8.65;7.43;;;;;;;;;;5111618;28;20381;-82
2021/06/01 01:16:26;;;;;;;8.35;7.20;;;;;;;;;;5111807;28;20367;-81
2021/06/01 01:18:58;;;;;;;7.05;6.45;;;;;;;;;;5111452;28;20416;-83
2021/06/01 01:21:28;;;;;;;8.30;7.50;;;;;;;;;;5111536;28;20405;-81
2021/06/01 01:24:21;;;;;;;8.18;7.20;;;;;;;;;;5111489;28;20370;-84
2021/06/01 01:26:59;;;;;;;7.90;7.10;;;;;;;;;;5111315;28;20350;-84
2021/06/01 01:29:36;;;;;;;10.30;7.55;;;;;;;;;;5093026;28;20461;-83
2021/06/01 01:32:03;;;;;;;8.27;7.47;;;;;;;;;;5110792;28;20373;-82
2021/06/01 01:34:29;;;;;;;8.70;7.38;;;;;;;;;;5110982;28;20402;-81
2021/06/01 01:36:56;;;;;;;8.48;7.63;;;;;;;;;;5092500;28;20432;-85
2021/06/01 01:39:24;;;;;;;8.25;7.32;;;;;;;;;;5092769;28;20374;-82
2021/06/01 01:41:50;;;;;;;8.30;7.50;;;;;;;;;;5110633;28;20394;-82
2021/06/01 01:44:18;;;;;;;8.25;7.25;;;;;;;;;;5111146;28;20840;-84
2021/06/01 01:49:17;;;;;;;7.77;7.07;;;;;;;;;;5110813;28;20706;-81
2021/06/01 01:51:52;;;;;;;8.77;7.88;;;;;;;;;;5110599;28;20427;-85
2021/06/01 01:54:25;;;;;;;8.75;7.95;;;;;;;;;;5110939;28;20378;-84
2021/06/01 01:56:54;;;;;;;8.43;7.38;;;;;;;;;;5110646;28;20366;-81
2021/06/01 01:59:24;;;;;;;8.02;7.30;;;;;;;;;;5110880;28;20844;-84
2021/06/01 02:01:52;;;;;;;8.27;7.47;;;;;;;;;;5092038;28;20481;-82
2021/06/01 02:04:19;;;;;;;8.55;7.72;;;;;;;;;;5110900;28;20377;-82
2021/06/01 02:06:46;;;;;;;8.73;7.72;;;;;;;;;;5110477;28;20366;-84
2021/06/01 02:09:12;;;;;;;8.57;7.78;;;;;;;;;;5110789;28;20363;-81
2021/06/01 02:11:38;;;;;;;8.60;7.80;;;;;;;;;;5110536;28;20420;-83
2021/06/01 02:14:05;;;;;;;9.15;7.90;;;;;;;;;;5110953;28;20367;-83
2021/06/01 02:16:31;;;;;;;8.07;7.28;;;;;;;;;;5110117;28;20367;-82
2021/06/01 02:18:58;;;;;;;8.43;7.53;;;;;;;;;;5110177;28;20837;-83
2021/06/01 02:21:46;;;;;;;8.27;7.47;;;;;;;;;;5110262;28;20399;-83
2021/06/01 02:24:44;;;;;;;8.13;7.38;;;;;;;;;;5091818;28;20429;-80
2021/06/01 02:27:13;;;;;;;8.25;7.45;;;;;;;;;;5037381;28;20375;-84
2021/06/01 02:29:47;;;;;;;8.52;7.72;;;;;;;;;;5092002;28;20374;-84
2021/06/01 02:32:14;;;;;;;8.68;7.78;;;;;;;;;;5091525;28;20379;-81
2021/06/01 02:34:41;;;;;;;9.13;7.90;;;;;;;;;;5091677;28;20374;-81
2021/06/01 02:37:07;;;;;;;9.38;7.90;;;;;;;;;;5109969;28;20395;-81
2021/06/01 02:39:34;;;;;;;9.10;7.63;;;;;;;;;;5109780;28;20378;-81
2021/06/01 02:42:01;;;;;;;10.53;8.27;;;;;;;;;;5109569;28;20525;-83
2021/06/01 02:44:27;;;;;;;10.13;8.43;;;;;;;;;;5108813;28;20377;-82
2021/06/01 02:46:53;;;;;;;11.13;8.85;;;;;;;;;;5109755;28;20465;-83
2021/06/01 02:49:19;;;;;;;9.77;8.75;;;;;;;;;;5091329;28;20856;-82
2021/06/01 02:51:45;;;;;;;8.70;7.72;;;;;;;;;;5109436;28;20386;-82
2021/06/01 02:54:12;;;;;;;8.88;8.02;;;;;;;;;;5091081;28;20375;-81
2021/06/01 02:56:38;;;;;;;9.95;8.02;;;;;;;;;;5091344;28;20375;-82
2021/06/01 02:59:07;;;;;;;10.40;8.30;;;;;;;;;;5109264;28;20420;-80
2021/06/01 03:01:33;;;;;;;9.77;8.75;;;;;;;;;;5091119;28;20456;-83
2021/06/01 03:03:59;;;;;;;9.90;8.90;;;;;;;;;;5109270;28;20362;-83
2021/06/01 03:06:26;;;;;;;9.98;8.98;;;;;;;;;;5109752;28;20963;-82
2021/06/01 03:08:52;;;;;;;8.97;8.07;;;;;;;;;;5109190;28;20373;-83
2021/06/01 03:11:20;;;;;;;8.77;7.97;;;;;;;;;;5109132;28;20852;-84
2021/06/01 03:13:47;;;;;;;8.30;7.60;;;;;;;;;;5090915;28;20379;-84
2021/06/01 03:16:13;;;;;;;8.73;7.75;;;;;;;;;;5109461;28;20424;-83
2021/06/01 03:18:39;;;;;;;8.52;7.72;;;;;;;;;;5109358;28;20371;-82
2021/06/01 03:21:05;;;;;;;8.57;7.78;;;;;;;;;;5108885;28;20409;-83
2021/06/01 03:23:31;;;;;;;10.23;8.57;;;;;;;;;;5109201;28;20702;-81
2021/06/01 03:25:57;;;;;;;13.88;8.98;;;;;;;;;;5108902;28;20420;-84
2021/06/01 03:28:23;;;;;;;9.45;7.55;;;;;;;;;;5109006;28;20432;-81
2021/06/01 03:30:50;;;;;;;11.90;7.80;;;;;;;;;;5109153;28;20736;-82
2021/06/01 03:33:16;;;;;;;16.75;9.00;;;;;;;;;;5090720;28;20432;-83
2021/06/01 03:35:42;;;;;;;13.45;8.10;;;;;;;;;;5109351;28;20365;-81
2021/06/01 03:38:09;;;;;;;23.27;9.35;;;;;;;;;;5109212;28;20458;-83
2021/06/01 03:40:35;;;;;;;22.00;8.70;;;;;;;;;;5108920;28;20481;-82
2021/06/01 03:43:01;;;;;;;17.30;7.60;;;;;;;;;;5090714;28;20900;-82
2021/06/01 03:45:27;;;;;;;31.83;9.45;;;;;;;;;;5108978;28;20367;-83
2021/06/01 03:47:53;;;;;;;25.33;9.40;;;;;;;;;;5108935;28;20358;-82
2021/06/01 03:50:20;;;;;;;37.05;9.82;;;;;;;;;;5108999;28;20490;-82
2021/06/01 03:52:46;;;;;;;21.53;8.33;;;;;;;;;;5108844;28;20387;-81
2021/06/01 03:55:12;;;;;;;28.83;9.05;;;;;;;;;;5110495;28;20366;-81
2021/06/01 03:57:38;;;;;;;17.48;8.95;;;;;;;;;;5094778;28;20375;-83
2021/06/01 04:00:06;;;;;;;8.00;7.20;;;;;;;;;;5113041;28;20394;-82
2021/06/01 04:02:32;;;;;;;11.23;7.38;;;;;;;;;;5112632;28;20725;-81
2021/06/01 04:04:58;;;;;;;10.63;7.40;;;;;;;;;;5094274;28;20459;-83
2021/06/01 04:07:24;;;;;;;13.90;8.57;;;;;;;;;;5112794;28;20378;-82
2021/06/01 04:09:50;;;;;;;12.03;8.20;;;;;;;;;;5094396;28;20883;-82
2021/06/01 04:12:16;;;;;;;14.63;8.00;;;;;;;;;;5112833;28;20366;-82
2021/06/01 04:14:42;;;;;;;10.97;7.50;;;;;;;;;;5094726;28;20798;-83
2021/06/01 04:17:08;;;;;;;12.00;7.70;;;;;;;;;;5113512;28;20451;-83
2021/06/01 04:19:34;;;;;;;11.30;8.10;;;;;;;;;;5095090;28;20378;-83
2021/06/01 04:22:01;;;;;;;11.60;7.72;;;;;;;;;;5113032;28;20896;-81
2021/06/01 04:24:28;;;;;;;12.15;8.27;;;;;;;;;;5112938;28;20359;-84
2021/06/01 04:26:55;;;;;;;8.13;7.27;;;;;;;;;;5112436;28;20362;-84
2021/06/01 04:29:21;;;;;;;9.60;8.43;;;;;;;;;;5112841;28;20365;-82
2021/06/01 04:31:47;;;;;;;13.43;8.18;;;;;;;;;;5094153;28;20367;-83
2021/06/01 04:34:14;;;;;;;10.68;8.20;;;;;;;;;;5112519;28;20369;-82
2021/06/01 04:36:40;;;;;;;10.60;8.18;;;;;;;;;;5112452;28;20429;-84
2021/06/01 04:39:06;;;;;;;8.63;7.70;;;;;;;;;;5112226;28;20362;-81
2021/06/01 04:41:32;;;;;;;9.40;7.68;;;;;;;;;;5112198;28;20860;-84
2021/06/01 04:43:57;;;;;;;10.40;8.32;;;;;;;;;;5112774;28;20363;-84
2021/06/01 04:46:23;;;;;;;8.50;7.63;;;;;;;;;;5111987;28;20725;-80
2021/06/01 04:48:51;;;;;;;9.77;7.72;;;;;;;;;;5111907;28;20366;-82
2021/06/01 04:51:17;;;;;;;10.02;8.15;;;;;;;;;;5112187;28;20879;-85
2021/06/01 04:53:46;;;;;;;10.50;7.93;;;;;;;;;;5110906;28;20451;-80
2021/06/01 04:56:12;;;;;;;17.27;8.82;;;;;;;;;;5072975;28;20451;-83
2021/06/01 04:58:38;;;;;;;13.60;8.05;;;;;;;;;;5091440;28;20425;-80
2021/06/01 05:01:04;;;;;;;13.10;7.93;;;;;;;;;;5092943;28;20399;-78
2021/06/01 05:03:30;;;;;;;11.40;7.43;;;;;;;;;;5107016;28;20384;-81
2021/06/01 05:05:56;;;;;;;20.67;10.20;;;;;;;;;;5106139;28;20410;-79
2021/06/01 05:08:22;;;;;;;21.60;9.65;;;;;;;;;;5092850;28;20466;-80
2021/06/01 05:10:48;;;;;;;21.67;9.40;;;;;;;;;;5101542;28;20873;-79
2021/06/01 05:13:14;;;;;;;21.60;10.83;;;;;;;;;;5106953;28;20378;-82
2021/06/01 05:15:40;;;;;;;26.67;10.17;;;;;;;;;;5092832;28;20927;-80
2021/06/01 05:18:06;;;;;;;24.47;10.27;;;;;;;;;;5111452;28;20367;-81
2021/06/01 05:20:32;;;;;;;19.85;10.25;;;;;;;;;;5111217;28;20877;-80
2021/06/01 05:22:58;;;;;;;13.68;10.07;;;;;;;;;;5110975;28;20417;-79
2021/06/01 05:25:24;;;;;;;12.88;10.30;;;;;;;;;;5111293;28;20869;-83
2021/06/01 05:27:50;;;;;;;13.05;10.35;;;;;;;;;;5110626;28;20370;-81
2021/06/01 05:30:22;;;;;;;12.32;10.88;;;;;;;;;;5110748;28;20428;-83
2021/06/01 05:35:29;;;;;;;15.63;11.55;;;;;;;;;;5091215;28;21165;-82
2021/06/01 05:37:56;;;;;;;15.05;11.82;;;;;;;;;;5090659;28;20364;-84
2021/06/01 05:40:22;;;;;;;13.95;11.80;;;;;;;;;;5089984;28;20400;-82
2021/06/01 05:42:48;;;;;;;14.17;11.97;;;;;;;;;;5090696;28;20865;-81
2021/06/01 05:45:14;;;;;;;12.77;11.10;;;;;;;;;;5090741;28;20365;-83
2021/06/01 05:47:40;;;;;;;14.63;11.32;;;;;;;;;;5072650;28;20476;-80
2021/06/01 05:50:06;;;;;;;13.80;11.17;;;;;;;;;;5090608;28;20516;-82
2021/06/01 05:52:36;;;;;;;12.63;11.02;;;;;;;;;;5090538;28;20373;-81
2021/06/01 05:55:04;;;;;;;13.27;10.80;;;;;;;;;;5072454;28;20376;-84
2021/06/01 05:57:30;;;;;;;14.75;10.88;;;;;;;;;;5090595;28;20854;-82
2021/06/01 05:59:56;;;;;;;14.18;11.48;;;;;;;;;;5090286;28;20376;-84
2021/06/01 06:02:22;;;;;;;15.40;11.57;;;;;;;;;;5090642;28;20373;-81
2021/06/01 06:04:48;;;;;;;14.80;11.38;;;;;;;;;;5072256;28;20373;-79
2021/06/01 06:07:14;;;;;;;13.60;10.75;;;;;;;;;;5090217;28;20364;-82
2021/06/01 06:09:40;;;;;;;13.85;12.00;;;;;;;;;;5072095;28;20430;-81
2021/06/01 06:12:06;;;;;;;15.82;11.90;;;;;;;;;;5090342;28;20387;-82
2021/06/01 06:14:32;;;;;;;16.35;12.30;;;;;;;;;;5090291;28;20365;-83
2021/06/01 06:17:03;;;;;;;14.15;11.40;;;;;;;;;;5090087;28;20958;-81
2021/06/01 06:19:29;;;;;;;11.60;10.50;;;;;;;;;;5071669;28;20539;-83
2021/06/01 06:21:54;;;;;;;11.57;10.25;;;;;;;;;;5089856;28;20491;-80
2021/06/01 06:24:20;;;;;;;13.48;10.63;;;;;;;;;;5089484;28;20733;-80
2021/06/01 06:26:46;;;;;;;12.07;10.27;;;;;;;;;;5071370;28;20377;-81
2021/06/01 06:29:12;;;;;;;12.95;10.10;;;;;;;;;;5089893;28;20929;-82
2021/06/01 06:31:39;;;;;;;12.50;9.60;;;;;;;;;;5089413;28;20430;-82
2021/06/01 06:34:05;;;;;;;11.15;9.93;;;;;;;;;;5071390;28;20475;-85
2021/06/01 06:36:31;;;;;;;11.80;10.60;;;;;;;;;;5089462;28;20914;-83
2021/06/01 06:38:57;;;;;;;13.80;10.02;;;;;;;;;;5089625;28;20447;-81
2021/06/01 06:41:23;;;;;;;10.03;8.83;;;;;;;;;;5089309;28;20404;-81
2021/06/01 06:43:50;;;;;;;11.70;9.07;;;;;;;;;;5089636;28;20837;-82
2021/06/01 06:46:25;;;;;;;9.50;8.50;;;;;;;;;;5071280;28;20388;-85
2021/06/01 06:48:52;;;;;;;13.93;8.63;;;;;;;;;;5089602;28;20364;-81
2021/06/01 06:51:18;;;;;;;11.37;8.53;;;;;;;;;;5089512;28;20415;-83
2021/06/01 06:53:56;;;;;;;9.23;7.80;;;;;;;;;;5089531;28;20364;-84
2021/06/01 06:56:24;;;;;;;8.88;7.53;;;;;;;;;;5089241;28;20374;-83
2021/06/01 06:58:50;;;;;;;12.00;7.37;;;;;;;;;;5089001;28;20921;-81
2021/06/01 07:01:16;;;;;;;10.85;7.43;;;;;;;;;;5105214;28;20410;-81
2021/06/01 07:03:42;;;;;;;9.73;7.35;;;;;;;;;;5107827;28;20882;-82
2021/06/01 07:06:08;;;;;;;8.93;7.32;;;;;;;;;;5108156;28;20450;-82
2021/06/01 07:08:34;;;;;;;10.82;7.53;;;;;;;;;;5103810;28;20414;-82
2021/06/01 07:11:01;;;;;;;8.95;7.03;;;;;;;;;;5107864;28;20367;-84
2021/06/01 07:13:31;;;;;;;7.63;6.70;;;;;;;;;;5106629;28;20362;-83
2021/06/01 07:15:57;;;;;;;8.55;7.13;;;;;;;;;;5108744;28;20823;-82
2021/06/01 07:18:23;;;;;;;7.72;6.60;;;;;;;;;;5103548;28;20410;-81
2021/06/01 07:20:49;;;;;;;9.23;6.50;;;;;;;;;;5107257;28;20489;-81
2021/06/01 07:23:15;;;;;;;8.23;6.50;;;;;;;;;;5090963;28;20486;-83
2021/06/01 07:25:41;;;;;;;7.88;6.20;;;;;;;;;;5107249;28;20481;-80
2021/06/01 07:28:07;;;;;;;12.40;6.55;;;;;;;;;;5105242;28;20895;-84
2021/06/01 07:30:33;;;;;;;8.13;6.40;;;;;;;;;;5108671;28;20371;-86
2021/06/01 07:33:00;;;;;;;7.65;5.85;;;;;;;;;;5107375;28;20400;-80
2021/06/01 07:35:26;;;;;;;8.50;6.72;;;;;;;;;;5109216;28;20504;-82
2021/06/01 07:37:52;;;;;;;19.85;10.48;;;;;;;;;;5107867;28;20825;-83
2021/06/01 07:40:18;;;;;;;7.72;5.88;;;;;;;;;;5109219;28;20430;-86
2021/06/01 07:42:44;;;;;;;11.13;6.53;;;;;;;;;;5107528;28;20390;-87
2021/06/01 07:45:11;;;;;;;15.23;7.60;;;;;;;;;;5109558;28;20371;-85
2021/06/01 07:47:37;;;;;;;8.77;5.97;;;;;;;;;;5089830;28;20398;-84
2021/06/01 07:50:04;;;;;;;8.55;6.00;;;;;;;;;;5090409;28;20745;-82
2021/06/01 07:52:30;;;;;;;8.90;5.20;;;;;;;;;;5105208;28;20500;-84
2021/06/01 07:54:56;;;;;;;15.48;6.40;;;;;;;;;;5100824;28;20378;-81
2021/06/01 07:57:23;;;;;;;9.38;5.82;;;;;;;;;;5103495;28;20841;-83
2021/06/01 07:59:49;;;;;;;8.10;5.47;;;;;;;;;;5086623;28;20375;-81
2021/06/01 08:02:15;;;;;;;6.80;5.10;;;;;;;;;;5085194;28;20396;-84
2021/06/01 08:04:41;;;;;;;8.43;6.20;;;;;;;;;;5103836;28;20406;-82
2021/06/01 08:07:08;;;;;;;8.75;5.32;;;;;;;;;;5102241;28;21089;-82
2021/06/01 08:09:35;;;;;;;15.57;7.00;;;;;;;;;;5105247;28;20383;-81
2021/06/01 08:12:03;;;;;;;10.45;5.78;;;;;;;;;;5086017;28;20752;-81
2021/06/01 08:14:29;;;;;;;6.95;5.70;;;;;;;;;;5100619;28;20402;-82
2021/06/01 08:16:55;;;;;;;11.17;5.87;;;;;;;;;;5104342;28;20383;-84
2021/06/01 08:19:27;;;;;;;8.97;4.80;;;;;;;;;;5086226;28;20864;-83
2021/06/01 08:24:19;;;;;;;8.55;4.78;;;;;;;;;;5104018;28;20363;-84
2021/06/01 08:26:45;;;;;;;8.50;4.55;;;;;;;;;;5103455;28;20400;-82
2021/06/01 08:29:13;;;;;;;4.93;3.83;;;;;;;;;;5104240;28;20362;-83
2021/06/01 08:31:39;;;;;;;6.32;4.15;;;;;;;;;;5103645;28;20386;-83
2021/06/01 08:34:05;;;;;;;7.07;4.10;;;;;;;;;;5104405;28;20363;-86
2021/06/01 08:36:31;;;;;;;6.93;3.88;;;;;;;;;;5104147;28;20410;-82
2021/06/01 08:38:57;;;;;;;6.23;4.03;;;;;;;;;;5103780;28;20394;-84
2021/06/01 08:41:23;;;;;;;6.70;3.55;;;25.70;87.00;;;;;;5103870;28;20395;-86
2021/06/01 08:43:52;;;;;;;6.55;3.80;;;25.60;90.00;;;;;;5107053;28;20448;-87
2021/06/01 08:46:23;;;;;;;9.33;4.33;;;25.80;89.50;;;;;;5107374;28;20383;-82
2021/06/01 08:48:50;;;;;;;7.65;4.00;;;26.00;88.50;;;;;;5108833;27;20383;-81
2021/06/01 08:51:20;;;;;;;5.93;3.80;;;26.20;81.50;;;;;;5090732;28;20889;-83
2021/06/01 08:53:46;;;;;;;5.25;3.88;;;26.30;86.30;;;;;;5107324;28;20444;-81
2021/06/01 08:56:11;;;;;;;7.15;3.83;;;26.40;82.10;;;;;;5106458;28;20379;-82
2021/06/01 08:58:37;;;;;;;7.17;3.83;;;26.40;84.20;;;;;;5089889;28;20383;-83
2021/06/01 09:01:02;;;;;;;6.90;3.90;;;26.30;82.70;;;;;;5107786;27;20937;-81
2021/06/01 09:03:28;;;;;;;6.03;3.90;;;26.00;78.20;;;;;;5106030;28;20836;-84
2021/06/01 09:06:09;;;;;;;6.78;4.15;;;25.60;79.00;;;;;;5088868;28;20383;-85
2021/06/01 09:22:39;;;;;;;6.25;4.05;;;25.00;80.70;;;;;;5110053;28;20425;-85
2021/06/01 09:25:10;;;;;;;6.85;3.92;;;25.20;79.10;;;;;;5109027;28;20375;-83
2021/06/01 09:27:52;;;;;;;5.40;3.78;;;24.40;77.20;;;;;;5091116;28;20443;-85
2021/06/01 09:30:41;;;;;;;5.63;3.80;;;24.40;79.20;;;;;;5110077;28;20378;-86
2021/06/01 09:33:09;;;;;;;4.40;3.80;;;24.40;79.90;;;;;;5109954;28;20398;-87
2021/06/01 09:35:48;;;;;;;5.18;3.63;;;24.70;82.30;;;;;;5091921;28;20371;-81
2021/06/01 09:38:16;;;;;;;4.88;3.55;;;25.00;75.30;;;;;;5091706;28;20802;-85
2021/06/01 09:40:42;;;;;;;7.40;3.90;;;25.00;75.80;;;;;;5110619;28;20399;-81
2021/06/01 09:43:11;;;;;;;6.90;3.83;;;24.90;73.60;;;;;;5110374;28;20373;-83
2021/06/01 09:45:37;;;;;;;5.47;3.50;;;24.70;73.70;;;;;;5109880;28;20419;-81
2021/06/01 09:48:05;;;;;;;6.10;4.20;;;24.70;75.70;;;;;;5109706;28;20374;-81
2021/06/01 09:53:26;;;;;;;5.32;4.18;;;24.90;78.90;;;;;;5110201;28;20414;-86
2021/06/01 09:55:53;;;;;;;4.40;4.00;;;24.70;74.30;;;;;;5109361;28;20381;-85
2021/06/01 09:58:28;;;;;;;5.90;4.35;;;24.40;75.80;;;;;;5091740;28;20872;-84
2021/06/01 10:00:55;;;;;;;6.30;4.22;;;24.00;78.10;;;;;;5110302;28;20586;-84
2021/06/01 10:03:23;;;;;;;6.57;4.53;;;24.30;80.90;;;;;;5092010;28;20428;-89
2021/06/01 10:05:56;;;;;;;7.00;4.70;;;24.30;79.20;;;;;;5091636;28;20371;-87
2021/06/01 10:08:26;;;;;;;5.13;4.20;;;24.30;78.60;;;;;;5110410;28;20383;-84
2021/06/01 10:10:56;;;;;;;9.02;4.63;;;24.40;81.80;;;;;;5109992;28;20449;-87
2021/06/01 10:13:24;;;;;;;7.82;4.07;;;24.50;76.80;;;;;;5091675;28;20444;-84
2021/06/01 10:15:52;;;;;;;5.72;4.43;;;24.50;78.70;;;;;;5090724;28;21174;-84
2021/06/01 10:18:19;;;;;;;5.10;4.07;;;24.50;77.20;;;;;;5109250;28;20410;-86
2021/06/01 10:20:50;;;;;;;6.63;4.60;;;24.30;80.40;;;;;;5109362;28;20394;-84
2021/06/01 10:23:22;;;;;;;5.72;4.10;;;24.30;79.00;;;;;;5091125;28;20382;-86
2021/06/01 10:25:48;;;;;;;6.47;4.30;;;24.30;76.10;;;;;;5083312;28;20394;-82
2021/06/01 10:28:23;;;;;;;5.40;4.00;;;24.10;78.90;;;;;;5091457;28;20382;-81
2021/06/01 10:30:49;;;;;;;4.80;3.80;;;24.20;77.70;;;;;;5109552;28;20378;-84
2021/06/01 10:33:17;;;;;;;5.40;4.28;;;24.40;80.30;;;;;;5109455;28;20407;-85
2021/06/01 10:35:54;;;;;;;5.78;3.80;;;24.60;80.80;;;;;;5108804;28;20385;-84
2021/06/01 10:53:14;;;;;;;5.80;3.78;;;24.20;77.50;;;;;;5097965;28;20375;-83
2021/06/01 10:55:50;;;;;;;8.77;4.10;;;24.20;81.60;;;;;;5089583;28;20879;-84
2021/06/01 10:58:19;;;;;;;30.43;27.43;;;24.40;82.00;;;;;;5099211;28;20768;-80
2021/06/01 11:03:16;;;;;;;26.45;23.52;;;24.30;78.00;;;;;;5113210;27;20465;-82
2021/06/01 11:05:54;;;;;;;27.08;24.27;;;24.10;78.30;;;;;;5111824;27;20462;-79
2021/06/01 11:08:50;;;;;;;7.38;5.32;;;24.10;79.30;;;;;;5098285;27;20458;-82
2021/06/01 11:11:27;;;;;;;10.53;6.27;;;23.90;83.40;;;;;;5098803;27;20391;-80
2021/06/01 11:13:58;;;;;;;4.85;3.70;;;24.00;78.60;;;;;;5105109;28;20727;-82
2021/06/01 11:16:57;;;;;;;3.75;3.42;;;24.20;77.50;;;;;;5100477;28;20843;-85
2021/06/01 11:19:28;;;;;;;5.20;3.20;;;24.30;77.00;;;;;;5096410;28;20807;-79
2021/06/01 11:22:03;;;;;;;9.13;4.22;;;24.80;77.10;;;;;;5092994;28;20404;-79
2021/06/01 11:33:32;;;;;;;4.70;3.25;;;24.20;75.00;;;;;;5096809;28;20382;-81
2021/06/01 11:36:04;;;;;;;4.07;3.20;;;24.30;78.10;;;;;;5092329;28;20893;-81
2021/06/01 11:38:50;;;;;;;5.55;3.03;;;24.40;76.60;;;;;;5094260;28;20389;-80
2021/06/01 11:44:27;;;;;;;4.43;3.20;;;24.50;72.90;;;;;;5094916;28;20379;-79
2021/06/01 11:47:13;;;;;;;4.82;2.92;;;24.70;76.40;;;;;;5102588;28;20375;-79
2021/06/01 11:52:29;;;;;;;4.90;3.30;;;24.90;70.40;;;;;;5104040;28;20391;-81
2021/06/01 11:54:55;;;;;;;3.30;2.45;;;24.80;68.00;;;;;;5104755;28;20402;-79
2021/06/01 11:57:31;;;;;;;35.10;21.90;;;24.60;65.80;;;;;;5104682;28;20392;-80
2021/06/01 12:02:49;;;;;;;4.55;3.83;;;24.30;69.10;;;;;;5104265;28;20403;-79
2021/06/01 12:18:59;;;;;;;4.43;3.20;;;25.20;67.50;;;;;;5106220;28;20531;-78
2021/06/01 12:21:26;;;;;;;3.20;2.90;;;24.90;64.80;;;;;;5101041;27;20390;-80
2021/06/01 12:24:06;;;;;;;5.65;3.03;;;24.70;65.00;;;;;;5101951;28;20391;-82
2021/06/01 12:32:12;;;;;;;5.50;3.00;;;24.20;65.60;;;;;;5106555;28;20420;-83
2021/06/01 12:34:52;;;;;;;2.72;2.33;;;24.20;65.60;;;;;;5086804;28;20876;-80
2021/06/01 12:43:29;;;;;;;5.00;2.35;;;23.90;65.50;;;;;;5106254;28;20905;-83
2021/06/01 13:20:39;;;;;;;3.97;1.90;;;24.90;62.00;;;;;;5107299;28;20448;-81
2021/06/01 13:36:57;;;;;;;3.60;1.60;;;24.40;59.70;;;;;;5106762;28;20417;-80
2021/06/01 13:39:47;;;;;;;2.27;1.50;;;24.50;57.50;;;;;;5107464;28;20386;-83
2021/06/01 13:48:23;;;;;;;3.00;1.70;;;24.30;59.10;;;;;;5118910;27;20388;-82
2021/06/01 13:56:03;;;;;;;2.60;1.60;;;24.70;59.60;;;;;;5107348;28;20932;-81
2021/06/01 13:58:40;;;;;;;2.42;1.80;;;24.60;58.50;;;;;;5088625;28;20464;-82
2021/06/01 14:01:13;;;;;;;3.13;1.90;;;24.50;60.30;;;;;;5073638;28;20410;-81
2021/06/01 14:10:19;;;;;;;4.77;1.57;;;23.90;59.40;;;;;;5093685;27;20414;-80
2021/06/01 14:20:50;;;;;;;2.00;1.40;;;24.00;59.50;;;;;;5127371;27;20470;-80
2021/06/01 14:29:36;;;;;;;3.10;1.35;;;23.80;58.10;;;;;;5106937;28;20424;-82
2021/06/01 15:23:25;;;;;;;2.13;1.40;;;24.30;57.10;;;;;;5103544;28;21632;-80
2021/06/01 15:51:04;;;;;;;2.85;1.58;;;23.40;56.60;;;;;;5105474;28;20393;-81
2021/06/01 16:11:17;;;;;;;2.08;1.63;;;23.50;57.70;;;;;;5124790;27;20462;-83
2021/06/01 16:21:36;;;;;;;4.88;1.98;;;22.00;62.00;;;;;;5109370;28;20483;-79
2021/06/01 17:06:11;;;;;;;6.15;2.60;;;21.90;68.50;;;;;;5111364;28;20431;-82
2021/06/01 17:08:31;;;;;;;47.78;5.65;;;21.90;67.70;;;;;;5094824;28;20374;-84
2021/06/01 17:13:58;;;;;;;12.18;3.20;;;22.00;69.30;;;;;;5110214;28;20390;-79
2021/06/01 17:19:43;;;;;;;18.15;3.72;;;22.00;70.60;;;;;;5100886;28;20385;-84
2021/06/01 17:36:14;;;;;;;7.15;2.80;;;21.70;70.90;;;;;;5098915;28;20419;-84
2021/06/01 17:38:40;;;;;;;11.52;3.00;;;21.80;74.10;;;;;;5112901;28;20775;-79
2021/06/01 17:41:10;;;;;;;8.77;2.70;;;21.70;74.50;;;;;;5112441;28;20394;-84
2021/06/01 17:43:36;;;;;;;3.97;2.67;;;21.70;76.00;;;;;;5078739;28;20384;-82
2021/06/01 17:46:05;;;;;;;4.53;2.42;;;21.70;75.00;;;;;;5096404;27;20840;-85
2021/06/01 17:51:06;;;;;;;6.63;3.28;;;21.60;78.50;;;;;;5111963;28;20382;-81
2021/06/01 17:53:41;;;;;;;7.28;2.80;;;21.50;80.00;;;;;;5093332;28;20386;-81
2021/06/01 17:56:07;;;;;;;4.22;2.50;;;21.40;79.70;;;;;;5111129;28;20371;-87
2021/06/01 17:58:33;;;;;;;4.03;2.97;;;21.20;80.00;;;;;;5111200;28;20891;-82
2021/06/01 18:00:59;;;;;;;8.52;4.32;;;20.80;79.20;;;;;;5109996;28;20398;-82
2021/06/01 18:03:25;;;;;;;6.63;4.40;;;20.40;85.90;;;;;;5109666;28;20386;-82
2021/06/01 18:05:53;;;;;;;6.85;4.90;;;20.10;88.80;;;;;;5110009;28;20410;-82
2021/06/01 18:08:46;;;;;;;7.13;4.83;;;20.00;91.60;;;;;;5110087;28;20370;-83
2021/06/01 18:11:38;;;;;;;20.20;6.82;;;;;;;;;;5107820;28;20614;-83
2021/06/01 19:06:51;;;;;;;3.88;2.83;;;;;;;;;;5105225;28;20398;-81
2021/06/01 19:25:04;;;;;;;4.47;1.87;;;;;;;;;;5105655;28;20805;-83
2021/06/01 19:44:21;;;;;;;4.15;1.60;;;;;;;;;;5106055;28;20986;-86
2021/06/01 19:52:22;;;;;;;4.68;1.50;;;;;;;;;;5099451;28;21040;-84
2021/06/01 19:54:51;;;;;;;2.42;1.48;;;;;;;;;;5088280;28;20370;-80
2021/06/01 19:57:19;;;;;;;3.65;1.30;;;;;;;;;;5103968;28;20390;-81
2021/06/01 19:59:45;;;;;;;4.60;1.80;;;;;;;;;;5082470;28;20393;-85
2021/06/01 20:02:38;;;;;;;2.63;1.35;;;;;;;;;;5103659;28;21125;-83
2021/06/01 20:05:06;;;;;;;2.35;1.30;;;;;;;;;;5096651;28;20482;-85
2021/06/01 20:07:33;;;;;;;2.65;1.20;;;;;;;;;;5105740;28;20841;-85
2021/06/01 20:10:00;;;;;;;3.63;1.20;;;;;;;;;;5089912;28;20395;-83
2021/06/01 20:12:27;;;;;;;3.85;1.23;;;;;;;;;;5105313;28;20401;-81
2021/06/01 20:14:53;;;;;;;3.27;1.30;;;;;;;;;;5097027;28;20372;-82
2021/06/01 20:17:19;;;;;;;2.43;1.20;;;;;;;;;;5099334;28;20447;-82
2021/06/01 20:19:46;;;;;;;1.55;1.27;;;;;;;;;;5107074;28;20944;-83
2021/06/01 20:22:13;;;;;;;2.00;1.10;;;;;;;;;;5107848;28;20757;-83
2021/06/01 20:24:40;;;;;;;2.00;1.33;;;;;;;;;;5104280;28;20467;-82
2021/06/01 20:27:09;;;;;;;2.30;1.40;;;;;;;;;;5107325;28;20792;-80
2021/06/01 20:29:36;;;;;;;3.20;1.10;;;;;;;;;;5108341;28;20366;-80
2021/06/01 20:34:48;;;;;;;1.30;1.20;;;;;;;;;;5107755;28;21970;-80
2021/06/01 20:37:14;;;;;;;3.13;1.20;;;;;;;;;;5109511;28;20355;-82
2021/06/01 20:39:44;;;;;;;5.13;1.08;;;;;;;;;;5111626;28;20371;-85
2021/06/01 20:42:10;;;;;;;1.58;1.20;;;;;;;;;;5090537;28;20402;-84
2021/06/01 20:44:37;;;;;;;2.07;1.30;;;;;;;;;;5111731;28;20370;-84
2021/06/01 20:47:03;;;;;;;2.65;1.00;;;;;;;;;;5111305;28;20366;-82
2021/06/01 20:49:29;;;;;;;2.60;1.20;;;;;;;;;;5110798;28;20471;-84
2021/06/01 20:51:56;;;;;;;3.03;1.20;;;;;;;;;;5089961;28;20438;-86
2021/06/01 20:54:25;;;;;;;2.40;1.30;;;;;;;;;;5109647;28;20389;-84
2021/06/01 20:56:52;;;;;;;2.00;1.10;;;;;;;;;;5107141;28;20457;-83
2021/06/01 20:59:19;;;;;;;4.60;1.30;;;;;;;;;;5091254;28;20368;-84
2021/06/01 21:01:47;;;;;;;2.67;1.00;;;;;;;;;;5091971;28;20837;-84
2021/06/01 21:04:13;;;;;;;2.60;1.20;;;;;;;;;;5101287;28;20383;-84
2021/06/01 21:06:40;;;;;;;3.42;1.50;;;;;;;;;;5111590;28;20424;-83
2021/06/01 21:09:06;;;;;;;2.92;1.38;;;;;;;;;;5107880;28;20498;-79
2021/06/01 21:11:32;;;;;;;2.25;1.35;;;;;;;;;;5108480;27;20463;-80
2021/06/01 21:13:58;;;;;;;4.30;1.10;;;;;;;;;;5110365;27;20381;-80
2021/06/01 21:16:24;;;;;;;3.10;1.10;;;;;;;;;;5111109;28;20398;-78